Time;durP1;ratioP1;P1;durP2;ratioP2;P2;SDS_P1;SDS_P2;PMS_P1;PMS_P2;Temp;Humidity;BMP_temperature;BMP_pressure;BME280_temperature;BME280_humidity;BME280_pressure;Samples;Min_cycle;Max_cycle;Signal;HPM_P1;HPM_P2
2021/09/19 00:01:10;;;;;;;65.45;62.70;;;;;;;13.13;100.00;97776.56;5089162;28;20043;-80
2021/09/19 00:03:36;;;;;;;66.63;63.80;;;;;;;13.21;100.00;97788.72;5089286;28;20020;-82
2021/09/19 00:06:02;;;;;;;73.05;70.03;;;;;;;13.14;100.00;97777.38;5088231;28;20020;-80
2021/09/19 00:08:27;;;;;;;64.25;61.63;;;;;;;13.11;100.00;97783.50;5090346;28;20049;-79
2021/09/19 00:10:54;;;;;;;45.67;43.53;;;;;;;13.12;100.00;97774.16;5089611;28;20028;-80
2021/09/19 00:13:19;;;;;;;37.40;34.92;;;;;;;13.07;100.00;97776.97;5094968;28;20020;-82
2021/09/19 00:15:45;;;;;;;51.28;47.20;;;;;;;13.04;100.00;97772.94;5101837;28;20028;-79
2021/09/19 00:18:10;;;;;;;78.40;73.53;;;;;;;13.02;100.00;97761.47;5103585;28;20519;-81
2021/09/19 00:20:38;;;;;;;73.28;70.07;;;;;;;13.10;100.00;97768.13;5089881;28;20027;-83
2021/09/19 00:23:03;;;;;;;86.10;81.95;;;;;;;13.11;100.00;97767.03;5089676;28;20450;-79
2021/09/19 00:25:29;;;;;;;88.60;84.50;;;;;;;13.00;100.00;97773.91;5091817;28;20036;-80
2021/09/19 00:27:54;;;;;;;52.22;50.05;;;;;;;12.96;100.00;97772.91;5092341;28;20117;-81
2021/09/19 00:30:20;;;;;;;24.17;23.10;;;;;;;12.90;100.00;97766.75;5092348;28;20031;-80
2021/09/19 00:32:45;;;;;;;24.75;23.65;;;;;;;12.95;100.00;97766.59;5093235;28;20059;-83
2021/09/19 00:35:11;;;;;;;28.42;26.77;;;;;;;12.93;100.00;97760.63;5091999;28;20024;-79
2021/09/19 00:37:37;;;;;;;39.15;37.55;;;;;;;12.92;100.00;97766.41;5097967;28;20037;-80
2021/09/19 00:40:03;;;;;;;34.13;32.67;;;;;;;12.88;100.00;97761.53;5098312;28;20092;-82
2021/09/19 00:42:29;;;;;;;36.33;34.67;;;;;;;13.02;100.00;97768.88;5095659;28;20050;-80
2021/09/19 00:45:04;;;;;;;32.53;31.13;;;;;;;13.04;100.00;97758.38;5094919;28;20024;-79
2021/09/19 00:47:30;;;;;;;26.58;25.38;;;;;;;13.08;100.00;97764.88;5093723;28;20028;-79
2021/09/19 00:49:55;;;;;;;29.80;28.48;;;;;;;13.04;100.00;97753.72;5095378;28;20029;-79
2021/09/19 00:52:23;;;;;;;27.52;26.25;;;;;;;13.08;100.00;97760.22;5095889;28;20077;-81
2021/09/19 00:54:50;;;;;;;25.20;24.15;;;;;;;13.26;100.00;97759.19;5092805;28;20510;-80
2021/09/19 00:57:17;;;;;;;24.00;22.80;;;;;;;13.09;100.00;97747.31;5094337;28;20059;-79
2021/09/19 00:59:49;;;;;;;25.27;24.17;;;;;;;12.99;100.00;97742.06;5092476;28;20051;-80
2021/09/19 01:02:15;;;;;;;26.52;25.42;;;;;;;13.05;100.00;97738.88;5094111;28;20114;-84
2021/09/19 01:04:41;;;;;;;24.10;23.00;;;;;;;12.93;100.00;97740.59;5093833;28;20024;-81
2021/09/19 01:07:07;;;;;;;24.38;23.27;;;;;;;13.07;100.00;97744.03;5093826;28;20392;-79
2021/09/19 01:09:35;;;;;;;24.60;23.42;;;;;;;13.14;100.00;97745.22;5094012;28;20115;-80
2021/09/19 01:12:02;;;;;;;23.38;22.27;;;;;;;13.03;100.00;97748.56;5092423;28;20062;-80
2021/09/19 01:14:28;;;;;;;22.83;21.70;;;;;;;12.96;100.00;97743.50;5093854;28;20396;-82
2021/09/19 01:16:56;;;;;;;24.70;23.60;;;;;;;12.85;100.00;97748.44;5093603;28;20107;-82
2021/09/19 01:19:24;;;;;;;27.55;26.35;;;;;;;12.70;100.00;97743.38;5093698;28;20032;-81
2021/09/19 01:21:51;;;;;;;28.38;27.17;;;;;;;12.69;100.00;97735.44;5092472;28;20113;-80
2021/09/19 01:24:17;;;;;;;28.90;27.70;;;;;;;12.66;100.00;97731.38;5093393;28;20031;-81
2021/09/19 01:26:43;;;;;;;32.03;30.63;;;;;;;12.47;100.00;97744.50;5092707;28;20047;-81
2021/09/19 01:29:09;;;;;;;29.40;28.02;;;;;;;12.53;100.00;97743.25;5091894;28;20484;-80
2021/09/19 01:31:35;;;;;;;22.77;21.58;;;;;;;12.42;100.00;97733.66;5093738;28;20031;-80
2021/09/19 01:34:01;;;;;;;23.02;21.98;;;;;;;12.30;100.00;97733.44;5093584;28;20074;-78
2021/09/19 01:36:32;;;;;;;23.90;22.90;;;;;;;12.27;100.00;97734.06;5092435;28;20118;-78
2021/09/19 01:38:57;;;;;;;25.95;24.65;;;;;;;12.06;100.00;97733.72;5093534;28;20028;-79
2021/09/19 01:41:23;;;;;;;21.23;20.13;;;;;;;11.93;100.00;97722.81;5093618;28;20031;-80
2021/09/19 01:43:49;;;;;;;22.20;21.20;;;;;;;11.86;100.00;97719.69;5093412;28;20080;-81
2021/09/19 01:46:15;;;;;;;23.20;22.20;;;;;;;11.85;100.00;97721.59;5093375;28;20478;-81
2021/09/19 01:48:43;;;;;;;26.00;24.90;;;;;;;11.92;100.00;97712.97;5093252;28;20030;-80
2021/09/19 01:51:09;;;;;;;27.25;25.95;;;;;;;11.92;100.00;97721.19;5092984;28;20044;-82
2021/09/19 01:53:38;;;;;;;26.25;25.05;;;;;;;11.90;100.00;97712.47;5093093;28;20134;-79
2021/09/19 01:56:04;;;;;;;28.08;26.83;;;;;;;11.95;100.00;97715.06;5092027;28;20020;-79
2021/09/19 01:58:30;;;;;;;28.25;26.90;;;;;;;11.94;100.00;97713.44;5092674;28;20024;-82
2021/09/19 02:00:58;;;;;;;30.48;29.10;;;;;;;12.06;100.00;97719.22;5077209;28;20070;-80
2021/09/19 02:03:23;;;;;;;31.15;29.67;;;;;;;11.99;100.00;97716.91;5072605;28;20438;-79
2021/09/19 02:05:49;;;;;;;33.65;32.05;;;;;;;12.11;100.00;97719.09;5072618;28;20150;-81
2021/09/19 02:08:14;;;;;;;31.20;29.90;;;;;;;12.16;100.00;97722.50;5073053;28;20492;-80
2021/09/19 02:10:40;;;;;;;39.88;38.22;;;;;;;12.12;100.00;97715.22;5073191;28;20111;-81
2021/09/19 02:13:07;;;;;;;42.45;40.67;;;;;;;12.19;100.00;97715.59;5072792;28;20024;-81
2021/09/19 02:15:33;;;;;;;43.75;41.95;;;;;;;12.28;100.00;97721.94;5073076;28;20036;-81
2021/09/19 02:17:59;;;;;;;44.25;42.42;;;;;;;12.24;100.00;97723.69;5072759;28;20496;-81
2021/09/19 02:20:24;;;;;;;39.03;37.33;;;;;;;12.32;100.00;97723.75;5072589;28;20421;-80
2021/09/19 02:22:50;;;;;;;35.45;33.75;;;;;;;12.21;100.00;97713.34;5072526;28;20031;-81
2021/09/19 02:25:15;;;;;;;36.33;34.75;;;;;;;12.21;100.00;97733.38;5072159;28;20032;-82
2021/09/19 02:27:42;;;;;;;30.90;29.60;;;;;;;12.15;100.00;97722.84;5072473;28;20029;-78
2021/09/19 02:30:11;;;;;;;33.22;31.65;;;;;;;12.04;100.00;97727.72;5075549;28;20103;-78
2021/09/19 02:32:36;;;;;;;28.55;27.35;;;;;;;12.22;100.00;97732.22;5083400;28;20048;-82
2021/09/19 02:35:03;;;;;;;27.25;25.95;;;;;;;12.15;100.00;97731.06;5073966;28;20116;-82
2021/09/19 02:37:28;;;;;;;23.67;22.58;;;;;;;12.16;100.00;97732.66;5072365;28;20020;-83
2021/09/19 02:39:54;;;;;;;24.10;22.65;;;;;;;12.02;100.00;97721.75;5072415;28;20050;-83
2021/09/19 02:42:19;;;;;;;22.23;21.08;;;;;;;12.12;100.00;97737.94;5072140;28;20396;-81
2021/09/19 02:44:45;;;;;;;19.95;19.10;;;;;;;12.13;100.00;97731.34;5072519;28;20036;-82
2021/09/19 02:47:11;;;;;;;24.08;22.98;;;;;;;12.33;100.00;97733.63;5074307;28;20473;-83
2021/09/19 02:49:36;;;;;;;22.38;21.05;;;;;;;12.26;100.00;97726.94;5070729;28;20047;-81
2021/09/19 02:52:02;;;;;;;23.33;22.23;;;;;;;12.27;100.00;97728.56;5071472;28;20055;-79
2021/09/19 02:54:27;;;;;;;26.00;24.60;;;;;;;12.14;100.00;97718.47;5071339;28;20029;-81
2021/09/19 02:56:53;;;;;;;23.17;22.08;;;;;;;12.14;100.00;97707.50;5076334;28;20028;-78
2021/09/19 02:59:19;;;;;;;24.20;23.00;;;;;;;12.02;100.00;97707.25;5093628;28;20392;-79
2021/09/19 03:01:45;;;;;;;21.73;20.63;;;;;;;12.14;100.00;97696.53;5110161;28;20031;-79
2021/09/19 03:04:11;;;;;;;22.92;21.85;;;;;;;12.04;100.00;97694.84;5111508;28;20446;-79
2021/09/19 03:06:37;;;;;;;21.42;20.33;;;;;;;12.15;100.00;97698.16;5110157;28;20424;-78
2021/09/19 03:09:02;;;;;;;22.40;21.30;;;;;;;12.13;100.00;97690.22;5111456;28;20066;-79
2021/09/19 03:11:28;;;;;;;23.08;22.08;;;;;;;12.08;100.00;97697.78;5111494;28;20085;-80
2021/09/19 03:13:53;;;;;;;25.42;23.95;;;;;;;12.12;100.00;97699.56;5111581;28;20047;-79
2021/09/19 03:16:19;;;;;;;24.08;22.42;;;;;;;12.25;100.00;97703.38;5111423;28;20107;-80
2021/09/19 03:18:45;;;;;;;19.17;18.08;;;;;;;12.24;100.00;97707.25;5108084;28;20031;-80
2021/09/19 03:21:10;;;;;;;20.55;19.65;;;;;;;12.48;100.00;97704.97;5111374;28;20024;-80
2021/09/19 03:23:36;;;;;;;23.70;22.17;;;;;;;12.51;100.00;97701.59;5110807;28;20125;-78
2021/09/19 03:26:01;;;;;;;18.30;17.27;;;;;;;12.60;100.00;97707.94;5111560;28;20034;-80
2021/09/19 03:28:26;;;;;;;21.50;20.40;;;;;;;12.67;100.00;97716.56;5111563;28;20067;-80
2021/09/19 03:30:52;;;;;;;20.23;19.27;;;;;;;12.61;100.00;97722.50;5110023;28;20063;-78
2021/09/19 03:33:17;;;;;;;21.80;20.50;;;;;;;12.57;100.00;97722.31;5111366;28;20460;-81
2021/09/19 03:35:43;;;;;;;20.92;19.83;;;;;;;12.64;100.00;97717.19;5111277;28;20042;-79
2021/09/19 03:38:08;;;;;;;22.67;21.67;;;;;;;12.65;100.00;97709.78;5110816;28;20023;-81
2021/09/19 03:40:34;;;;;;;19.80;18.88;;;;;;;12.84;100.00;97713.88;5111076;28;20027;-81
2021/09/19 03:42:59;;;;;;;21.15;20.15;;;;;;;12.74;100.00;97714.19;5111050;28;20031;-81
2021/09/19 03:45:28;;;;;;;21.40;20.38;;;;;;;12.64;100.00;97717.19;5110668;28;20084;-79
2021/09/19 03:47:55;;;;;;;23.98;22.77;;;;;;;12.72;100.00;97704.63;5109570;28;20076;-82
2021/09/19 03:50:21;;;;;;;23.45;22.38;;;;;;;12.62;100.00;97691.19;5115756;28;20031;-80
2021/09/19 03:52:47;;;;;;;23.50;22.40;;;;;;;12.59;100.00;97694.56;5123747;28;20482;-82
2021/09/19 03:55:12;;;;;;;21.50;20.52;;;;;;;12.58;100.00;97696.50;5123308;28;20027;-81
2021/09/19 03:57:38;;;;;;;19.60;18.15;;;;;;;12.57;100.00;97686.63;5123604;28;20039;-80
2021/09/19 04:00:05;;;;;;;18.02;17.13;;;;;;;12.57;100.00;97683.88;5117145;28;20478;-79
2021/09/19 04:02:30;;;;;;;20.50;19.63;;;;;;;12.46;100.00;97693.53;5115385;28;20396;-79
2021/09/19 04:04:55;;;;;;;21.70;20.60;;;;;;;12.49;100.00;97689.34;5113950;28;20065;-78
2021/09/19 04:07:21;;;;;;;17.38;16.60;;;;;;;12.65;100.00;97685.88;5114323;28;20392;-81
2021/09/19 04:09:47;;;;;;;18.80;17.75;;;;;;;12.61;100.00;97693.13;5114338;28;20032;-82
2021/09/19 04:12:12;;;;;;;21.25;19.52;;;;;;;12.51;100.00;97690.63;5115101;28;20031;-82
2021/09/19 04:14:38;;;;;;;20.17;18.77;;;;;;;12.52;100.00;97691.44;5115027;28;20028;-82
2021/09/19 04:17:03;;;;;;;18.50;17.67;;;;;;;12.55;100.00;97694.38;5115022;28;20024;-79
2021/09/19 04:19:28;;;;;;;19.55;18.58;;;;;;;12.39;100.00;97682.19;5114858;28;20369;-80
2021/09/19 04:21:54;;;;;;;17.45;16.75;;;;;;;12.40;100.00;97688.47;5113300;28;20019;-84
2021/09/19 04:24:19;;;;;;;16.45;15.60;;;;;;;12.37;100.00;97700.06;5114972;28;20039;-80
2021/09/19 04:26:45;;;;;;;17.55;16.75;;;;;;;12.32;100.00;97701.00;5114719;28;20436;-79
2021/09/19 04:29:10;;;;;;;19.08;17.92;;;;;;;12.32;100.00;97701.81;5113662;28;20018;-78
2021/09/19 04:31:36;;;;;;;17.90;17.00;;;;;;;12.29;100.00;97704.38;5114539;28;20027;-79
2021/09/19 04:34:01;;;;;;;17.17;16.48;;;;;;;12.27;100.00;97706.63;5113533;28;20027;-78
2021/09/19 04:36:27;;;;;;;18.20;17.40;;;;;;;12.40;100.00;97703.00;5114638;28;20024;-78
2021/09/19 04:38:52;;;;;;;18.40;17.50;;;;;;;12.49;100.00;97711.28;5115238;28;20036;-77
2021/09/19 04:41:17;;;;;;;19.33;18.30;;;;;;;12.47;100.00;97714.31;5115679;28;20058;-78
2021/09/19 04:43:43;;;;;;;19.85;18.95;;;;;;;12.50;100.00;97719.19;5115595;28;20388;-79
2021/09/19 04:46:08;;;;;;;18.38;17.42;;;;;;;12.42;100.00;97728.19;5128215;28;20020;-79
2021/09/19 04:48:34;;;;;;;17.35;16.55;;;;;;;12.53;100.00;97726.78;5118041;28;20418;-77
2021/09/19 04:50:59;;;;;;;18.15;17.33;;;;;;;12.64;100.00;97730.09;5113698;28;20028;-77
2021/09/19 04:53:24;;;;;;;17.23;16.33;;;;;;;12.69;100.00;97725.28;5114870;28;20061;-80
2021/09/19 04:55:50;;;;;;;18.90;18.00;;;;;;;12.64;100.00;97719.13;5114534;27;20024;-78
2021/09/19 04:58:15;;;;;;;16.75;16.02;;;;;;;12.68;100.00;97734.66;5114849;28;20036;-79
2021/09/19 05:00:42;;;;;;;18.25;17.45;;;;;;;12.68;100.00;97737.41;5114266;28;20043;-78
2021/09/19 05:03:08;;;;;;;19.38;18.45;;;;;;;12.73;100.00;97739.19;5114530;28;20030;-78
2021/09/19 05:05:33;;;;;;;18.52;17.67;;;;;;;12.75;100.00;97740.47;5113044;28;20035;-77
2021/09/19 05:07:58;;;;;;;19.80;18.98;;;;;;;12.81;100.00;97739.22;5112847;28;20108;-78
2021/09/19 05:10:24;;;;;;;17.05;16.30;;;;;;;12.97;100.00;97747.84;5112799;28;20541;-77
2021/09/19 05:12:49;;;;;;;18.52;17.63;;;;;;;13.01;100.00;97742.53;5095575;28;20031;-78
2021/09/19 05:15:15;;;;;;;18.70;17.80;;;;;;;13.10;100.00;97737.94;5095589;28;20516;-77
2021/09/19 05:17:40;;;;;;;18.35;17.55;;;;;;;13.05;100.00;97743.53;5114089;28;20028;-78
2021/09/19 05:20:06;;;;;;;17.50;16.58;;;;;;;13.01;100.00;97748.03;5114074;28;20047;-79
2021/09/19 05:22:31;;;;;;;20.63;19.58;;;;;;;13.01;100.00;97743.38;5112353;28;20043;-78
2021/09/19 05:24:57;;;;;;;18.00;17.20;;;;;;;13.05;100.00;97746.28;5112210;28;20036;-81
2021/09/19 05:27:22;;;;;;;18.88;17.52;;;;;;;13.12;100.00;97739.25;5112540;28;20070;-82
2021/09/19 05:29:48;;;;;;;17.42;16.52;;;;;;;12.95;100.00;97722.66;5112235;28;20083;-77
2021/09/19 05:32:13;;;;;;;20.52;19.55;;;;;;;13.02;100.00;97744.19;5113282;28;20022;-80
2021/09/19 05:34:38;;;;;;;19.58;18.73;;;;;;;12.99;100.00;97734.66;5113175;28;20035;-78
2021/09/19 05:37:06;;;;;;;20.25;19.40;;;;;;;13.06;100.00;97734.97;5113257;28;20035;-79
2021/09/19 05:39:32;;;;;;;21.42;20.50;;;;;;;13.12;100.00;97735.69;5111694;28;20488;-78
2021/09/19 05:41:58;;;;;;;19.85;18.98;;;;;;;13.12;100.00;97732.94;5112379;28;20027;-79
2021/09/19 05:44:23;;;;;;;19.55;18.75;;;;;;;13.15;100.00;97738.63;5116699;28;20122;-77
2021/09/19 05:46:49;;;;;;;21.33;20.42;;;;;;;13.09;100.00;97726.16;5112938;28;20480;-76
2021/09/19 05:49:14;;;;;;;20.38;19.45;;;;;;;13.29;100.00;97738.50;5112868;28;20035;-77
2021/09/19 05:51:40;;;;;;;21.50;20.60;;;;;;;13.48;100.00;97744.53;5113117;28;20084;-78
2021/09/19 05:54:05;;;;;;;20.25;19.13;;;;;;;13.23;100.00;97729.59;5113173;28;20050;-77
2021/09/19 05:56:33;;;;;;;18.40;17.25;;;;;;;13.03;100.00;97718.34;5112700;28;20066;-77
2021/09/19 05:58:58;;;;;;;32.60;30.08;;;;;;;13.25;100.00;97732.81;5112788;28;20051;-78
2021/09/19 06:01:27;;;;;;;19.58;18.58;;;;;;;13.22;100.00;97735.38;5111000;28;20415;-75
2021/09/19 06:03:52;;;;;;;21.88;20.98;;;;;;;13.24;100.00;97730.41;5112777;28;20144;-75
2021/09/19 06:06:18;;;;;;;21.25;20.35;;;;;;;13.29;100.00;97731.06;5112672;28;20028;-80
2021/09/19 06:08:43;;;;;;;39.30;35.75;;;;;;;13.20;100.00;97723.91;5115122;28;20499;-76
2021/09/19 06:11:08;;;;;;;18.08;17.27;;;;;;;13.34;100.00;97725.41;5120203;28;20030;-77
2021/09/19 06:13:34;;;;;;;20.02;19.02;;;;;;;13.30;100.00;97720.91;5117385;28;20061;-78
2021/09/19 06:16:00;;;;;;;41.65;37.65;;;;;;;13.17;100.00;97730.88;5113323;28;20038;-76
2021/09/19 06:18:28;;;;;;;24.42;23.23;;;;;;;13.16;100.00;97725.69;5114521;28;20032;-76
2021/09/19 06:20:55;;;;;;;33.03;30.67;;;;;;;13.54;100.00;97728.69;5114319;28;20072;-77
2021/09/19 06:23:20;;;;;;;24.40;23.30;;;;;;;13.64;100.00;97745.72;5111819;28;20070;-77
2021/09/19 06:25:46;;;;;;;21.10;20.13;;;;;;;13.64;100.00;97734.72;5112218;28;20475;-76
2021/09/19 06:28:12;;;;;;;20.55;19.63;;;;;;;13.69;100.00;97737.31;5111057;28;20018;-76
2021/09/19 06:30:37;;;;;;;19.60;18.75;;;;;;;13.76;100.00;97732.16;5112466;28;20051;-79
2021/09/19 06:33:03;;;;;;;22.58;21.42;;;;;;;13.79;100.00;97748.00;5112252;28;20057;-75
2021/09/19 06:35:29;;;;;;;24.80;23.70;;;;;;;13.69;100.00;97742.81;5114024;28;20035;-77
2021/09/19 06:37:54;;;;;;;39.53;36.13;;;;;;;13.77;100.00;97747.53;5112544;28;20035;-75
2021/09/19 06:40:19;;;;;;;23.60;22.50;;;;;;;13.74;100.00;97742.66;5090963;28;20016;-76
2021/09/19 06:42:45;;;;;;;22.77;21.83;;;;;;;14.04;100.00;97740.09;5091827;28;20078;-76
2021/09/19 06:45:13;;;;;;;21.92;20.83;;;;;;;13.84;100.00;97728.63;5091222;28;20024;-75
2021/09/19 06:47:43;;;;;;;23.38;22.35;;;;;;;13.88;100.00;97729.56;5091429;28;20040;-76
2021/09/19 06:50:13;;;;;;;19.35;18.55;;;;;;;13.83;100.00;97734.41;5090343;28;20024;-75
2021/09/19 06:52:38;;;;;;;22.65;21.23;;;;;;;13.91;100.00;97737.16;5089967;28;20028;-73
2021/09/19 06:55:08;;;;;;;23.95;22.70;;;;;;;14.12;100.00;97733.81;5091890;28;20447;-74
2021/09/19 06:57:34;;;;;;;26.58;25.38;;;;;;;14.28;100.00;97729.44;5092944;28;20059;-76
2021/09/19 06:59:59;;;;;;;20.35;19.48;;;;;;;14.42;100.00;97739.16;5095547;28;20076;-75
2021/09/19 07:02:28;;;;;;;17.40;16.70;;;;;;;14.48;100.00;97729.59;5111996;28;20058;-75
2021/09/19 07:04:53;;;;;;;18.00;17.27;;;;;;;14.81;100.00;97740.06;5111490;28;20027;-75
2021/09/19 07:07:19;;;;;;;18.98;17.65;;;;;;;15.17;96.61;97737.66;5111021;28;20027;-77
2021/09/19 07:09:47;;;;;;;15.90;15.20;;;;;;;15.06;96.97;97732.84;5109422;28;20034;-75
2021/09/19 07:12:22;;;;;;;16.17;15.48;;;;;;;15.01;96.54;97734.63;5111180;28;20492;-78
2021/09/19 07:14:47;;;;;;;16.15;15.35;;;;;;;15.08;97.29;97738.84;5111191;28;20043;-74
2021/09/19 07:17:13;;;;;;;17.05;16.15;;;;;;;14.97;95.56;97743.91;5111138;28;20020;-74
2021/09/19 07:19:38;;;;;;;26.10;24.75;;;;;;;14.92;97.57;97753.16;5109381;28;20023;-76
2021/09/19 07:22:05;;;;;;;20.98;19.92;;;;;;;15.06;95.31;97749.38;5100887;28;20499;-74
2021/09/19 07:24:31;;;;;;;22.65;21.50;;;;;;;15.07;95.19;97740.00;5097804;28;20457;-75
2021/09/19 07:27:00;;;;;;;19.33;18.52;;;;;;;15.29;94.14;97750.72;5096167;27;20020;-76
2021/09/19 07:29:25;;;;;;;16.50;15.70;;;;;;;15.52;93.05;97746.63;5098376;28;20027;-75
2021/09/19 07:31:53;;;;;;;16.60;15.77;;;;;;;15.58;92.43;97752.75;5098653;28;20035;-72
2021/09/19 07:34:24;;;;;;;17.13;15.93;;;;;;;15.60;93.38;97740.22;5099518;28;20039;-74
2021/09/19 07:36:51;;;;;;;18.58;17.77;;;;;;;15.73;92.71;97741.94;5099444;28;20028;-72
2021/09/19 07:39:17;;;;;;;17.38;16.25;;;;;;;15.69;91.10;97754.81;5098334;28;20035;-74
2021/09/19 07:41:43;;;;;;;16.17;15.45;;;;;;;15.90;89.63;97739.09;5105556;28;20028;-74
2021/09/19 07:44:12;;;;;;;24.25;23.08;;;;;;;16.05;88.58;97743.19;5097670;28;20060;-73
2021/09/19 07:46:38;;;;;;;47.63;45.58;;;;;;;16.24;89.47;97742.72;5100175;28;20085;-75
2021/09/19 07:49:03;;;;;;;17.27;16.58;;;;;;;16.64;84.79;97740.28;5100948;28;20481;-75
2021/09/19 07:51:29;;;;;;;13.98;13.38;;;;;;;16.73;84.08;97733.53;5093932;28;20032;-75
2021/09/19 07:53:55;;;;;;;15.38;14.68;;;;;;;16.86;82.52;97737.94;5089386;28;20043;-73
2021/09/19 07:56:21;;;;;;;14.40;13.73;;;;;;;17.26;82.89;97746.41;5103395;28;20464;-73
2021/09/19 07:58:47;;;;;;;13.57;12.98;;;;;;;17.46;83.18;97756.59;5100091;28;20027;-73
2021/09/19 08:01:12;;;;;;;17.35;16.55;;;;;;;17.22;80.47;97756.56;5088985;28;20036;-73
2021/09/19 08:03:41;;;;;;;21.05;20.15;;;;;;;17.26;80.63;97756.69;5089043;28;20034;-74
2021/09/19 08:06:06;;;;;;;15.35;14.52;;;;;;;16.65;84.45;97753.75;5096182;28;20032;-74
2021/09/19 08:08:32;;;;;;;15.70;15.00;;;;;;;16.70;84.24;97748.00;5080004;28;20032;-74
2021/09/19 08:11:02;;;;;;;14.65;13.95;;;;;;;16.70;86.17;97748.00;5095379;28;20016;-74
2021/09/19 08:13:28;;;;;;;16.88;15.98;;;;;;;16.66;84.33;97762.84;5070557;28;20024;-74
2021/09/19 08:15:53;;;;;;;17.20;13.60;;;;;;;16.58;85.20;97770.06;5094891;28;20076;-74
2021/09/19 08:18:21;;;;;;;16.15;15.23;;;;;;;16.29;85.12;97773.69;5091386;28;20499;-74
2021/09/19 08:20:47;;;;;;;14.48;13.68;;;;;;;15.91;88.77;97779.31;5093053;28;20032;-75
2021/09/19 08:23:12;;;;;;;14.73;14.02;;;;;;;16.22;86.55;97767.09;5095819;28;20043;-75
2021/09/19 08:25:39;;;;;;;14.27;13.63;;;;;;;16.32;84.98;97752.91;5099651;28;20026;-73
2021/09/19 08:28:08;;;;;;;14.50;13.85;;;;;;;16.28;85.77;97749.19;5100185;28;20027;-74
2021/09/19 08:30:33;;;;;;;14.50;13.90;;;;;;;16.51;87.01;97742.97;5100435;28;20027;-75
2021/09/19 08:32:59;;;;;;;16.70;15.90;;;;;;;16.54;83.79;97750.59;5079543;28;20035;-73
2021/09/19 08:35:25;;;;;;;14.68;14.07;;;;;;;16.64;82.30;97749.38;5098907;28;20079;-74
2021/09/19 08:37:50;;;;;;;15.63;14.95;;;;;;;16.99;81.76;97760.88;5097765;28;20024;-76
2021/09/19 08:40:22;;;;;;;16.23;15.52;;;;;;;16.85;80.73;97754.88;5702054;22;20409;-75
2021/09/19 08:42:52;;;;;;;17.20;16.35;;;;;;;16.63;83.22;97761.59;5019825;28;20041;-75
2021/09/19 08:45:18;;;;;;;15.95;15.25;;;;;;;16.84;80.65;97756.00;5027738;28;20060;-75
2021/09/19 08:47:43;;;;;;;15.55;14.80;;;;;;;16.62;80.50;97757.19;5049054;28;20087;-75
2021/09/19 08:50:13;;;;;;;13.93;13.18;;;;;;;16.79;80.58;97751.50;5030033;28;20056;-76
2021/09/19 08:52:39;;;;;;;15.10;14.43;;;;;;;16.90;79.64;97744.41;5037081;28;20029;-75
2021/09/19 08:55:07;;;;;;;14.35;13.75;;;;;;;17.39;79.02;97733.41;5013886;28;20025;-76
2021/09/19 08:57:33;;;;;;;14.68;13.95;;;;;;;18.05;74.96;97732.00;5024861;28;20478;-76
2021/09/19 09:00:04;;;;;;;24.45;23.35;;;;;;;18.85;72.15;97729.22;5015080;28;20041;-76
2021/09/19 09:02:44;;;;;;;15.45;14.82;;;;;;;18.35;69.37;97717.84;4997856;28;20417;-75
2021/09/19 09:05:18;;;;;;;13.30;12.70;;;;;;;19.31;67.80;97730.41;5018078;28;20026;-76
2021/09/19 09:07:44;;;;;;;14.88;14.27;;;;;;;18.60;69.83;97722.16;5017019;28;20026;-76
2021/09/19 09:10:10;;;;;;;12.98;12.38;;;;;;;19.23;68.24;97728.63;5013838;28;20108;-75
2021/09/19 09:12:36;;;;;;;14.52;13.90;;;;;;;20.06;64.72;97739.38;5032841;28;20187;-76
2021/09/19 09:15:04;;;;;;;15.68;14.93;;;;;;;20.45;64.64;97728.34;5032426;28;20078;-74
2021/09/19 09:17:29;;;;;;;14.32;13.73;;;;;;;21.46;59.62;97714.00;5015052;28;20418;-74
2021/09/19 09:19:58;;;;;;;10.98;10.48;;;;;;;22.14;55.95;97717.47;5014816;28;20030;-75
2021/09/19 09:22:26;;;;;;;13.07;12.18;;;;;;;21.51;57.15;97702.56;5026098;28;20093;-73
2021/09/19 09:25:09;;;;;;;10.18;9.77;;;;;;;20.98;59.58;97713.53;5039335;28;20167;-76
2021/09/19 09:27:41;;;;;;;9.73;9.32;;;;;;;22.89;57.21;97716.44;5036537;28;20367;-76
2021/09/19 09:30:15;;;;;;;10.15;9.75;;;;;;;23.72;52.12;97730.81;5023002;28;20426;-75
2021/09/19 09:32:59;;;;;;;14.30;13.55;;;;;;;24.43;49.49;97732.13;5033016;28;20029;-77
2021/09/19 09:35:34;;;;;;;12.15;11.43;;;;;;;24.78;48.24;97725.88;5042483;28;20830;-76
2021/09/19 09:38:00;;;;;;;11.27;10.77;;;;;;;22.36;55.41;97726.94;5021523;28;20033;-75
2021/09/19 09:40:31;;;;;;;9.93;9.52;;;;;;;20.62;61.22;97725.13;5013743;28;20057;-77
2021/09/19 09:43:01;;;;;;;10.27;9.77;;;;;;;20.25;62.15;97719.97;5018406;28;20021;-76
2021/09/19 09:45:27;;;;;;;9.65;9.25;;;;;;;20.29;61.49;97723.69;5014096;28;20033;-79
2021/09/19 09:47:52;;;;;;;10.23;9.80;;;;;;;19.91;63.34;97726.34;5031293;28;20029;-80
2021/09/19 09:50:24;;;;;;;10.60;10.07;;;;;;;20.35;61.94;97715.03;5034041;28;20038;-78
2021/09/19 09:53:07;;;;;;;10.25;9.38;;;;;;;21.82;58.05;97719.75;5034577;28;20033;-79
2021/09/19 09:55:32;;;;;;;9.93;9.43;;;;;;;21.85;57.57;97716.22;5041257;28;20080;-78
2021/09/19 09:58:08;;;;;;;10.35;9.85;;;;;;;21.79;58.83;97712.16;5040390;28;20029;-76
2021/09/19 10:00:35;;;;;;;17.10;15.80;;;;;;;21.84;57.44;97699.88;5032287;28;20068;-76
2021/09/19 10:03:02;;;;;;;16.58;15.88;;;;;;;21.40;58.06;97699.56;5020792;28;20390;-73
2021/09/19 10:05:28;;;;;;;26.25;23.63;;;;;;;21.81;57.18;97700.63;5035898;28;20028;-73
2021/09/19 10:07:58;;;;;;;18.48;17.00;;;;;;;21.08;58.35;97693.44;5038747;28;20481;-74
2021/09/19 10:10:29;;;;;;;10.93;10.43;;;;;;;20.87;61.18;97695.81;5040851;28;20021;-75
2021/09/19 10:12:56;;;;;;;11.75;11.25;;;;;;;20.52;60.68;97700.69;5044265;28;20028;-76
2021/09/19 10:15:25;;;;;;;9.25;8.85;;;;;;;20.41;60.93;97689.38;5040394;28;20026;-74
2021/09/19 10:17:51;;;;;;;13.70;13.10;;;;;;;20.78;61.37;97679.38;5039411;28;20466;-75
2021/09/19 10:20:21;;;;;;;11.95;11.35;;;;;;;20.90;59.89;97686.75;5035720;28;20070;-75
2021/09/19 10:22:54;;;;;;;10.13;9.63;;;;;;;20.97;59.79;97675.75;5040887;28;20021;-74
2021/09/19 10:25:41;;;;;;;11.70;11.20;;;;;;;21.19;59.01;97668.63;5036679;28;20021;-76
2021/09/19 10:28:34;;;;;;;11.30;10.60;;;;;;;21.25;58.96;97672.69;5015587;28;20045;-73
2021/09/19 10:31:08;;;;;;;11.30;10.77;;;;;;;20.95;59.24;97669.78;5023192;28;20025;-75
2021/09/19 10:33:56;;;;;;;11.68;11.10;;;;;;;21.48;61.29;97672.69;5023134;28;20132;-74
2021/09/19 10:36:29;;;;;;;12.07;11.57;;;;;;;21.78;58.49;97673.53;5034799;28;20465;-74
2021/09/19 10:39:11;;;;;;;11.07;10.55;;;;;;;21.86;58.44;97675.25;5041135;28;20053;-75
2021/09/19 10:41:36;;;;;;;12.02;11.45;;;;;;;21.32;59.57;97681.97;5044569;28;20043;-74
2021/09/19 10:44:04;;;;;;;10.95;10.45;;;;;;;21.36;59.15;97665.34;5030670;28;20029;-73
2021/09/19 10:46:45;;;;;;;12.75;12.20;;;;;;;21.90;58.40;97667.75;5016904;28;20033;-75
2021/09/19 10:49:18;;;;;;;10.57;9.98;;;;;;;22.65;55.14;97661.13;5026211;28;20071;-75
2021/09/19 10:51:58;;;;;;;10.93;10.43;;;;;;;22.80;56.01;97662.97;5029690;28;20078;-72
2021/09/19 10:54:45;;;;;;;11.07;10.48;;;;;;;23.31;56.44;97666.63;5010056;28;20087;-75
2021/09/19 10:57:27;;;;;;;10.50;10.07;;;;;;;22.62;55.14;97665.50;5038104;28;20021;-74
2021/09/19 11:00:08;;;;;;;10.68;10.07;;;;;;;22.04;57.26;97659.63;5018737;28;20379;-74
2021/09/19 11:02:40;;;;;;;12.30;11.68;;;;;;;21.41;59.11;97664.19;5040775;28;20062;-77
2021/09/19 11:05:25;;;;;;;11.45;10.93;;;;;;;21.27;63.06;97659.19;5038089;28;20045;-75
2021/09/19 11:08:03;;;;;;;11.70;11.00;;;;;;;21.04;61.54;97656.41;5036185;28;20033;-75
2021/09/19 11:10:29;;;;;;;12.57;11.98;;;;;;;20.94;63.73;97659.00;5017131;28;20051;-75
2021/09/19 11:12:55;;;;;;;12.95;12.45;;;;;;;21.06;61.78;97650.47;5021286;28;20363;-74